sensor_id;sensor_type;location;lat;lon;timestamp;temperature;humidity
74484;SHT31;62942;52.462;10.846;2024-02-21T00:00:25;7.5;93
74484;SHT31;62942;52.462;10.846;2024-02-21T00:01:35;7.5;93
74484;SHT31;62942;52.462;10.846;2024-02-21T00:02:45;7.6;93
74484;SHT31;62942;52.462;10.846;2024-02-21T00:03:45;7.5;93
74484;SHT31;62942;52.462;10.846;2024-02-21T00:04:55;7.5;93
74484;SHT31;62942;52.462;10.846;2024-02-21T00:06:05;7.6;93
74484;SHT31;62942;52.462;10.846;2024-02-21T00:07:15;7.6;92.9
74484;SHT31;62942;52.462;10.846;2024-02-21T00:08:15;7.6;92.9
74484;SHT31;62942;52.462;10.846;2024-02-21T00:09:25;7.6;92.9
74484;SHT31;62942;52.462;10.846;2024-02-21T00:10:35;7.6;92.7
74484;SHT31;62942;52.462;10.846;2024-02-21T00:11:45;7.6;92.7
74484;SHT31;62942;52.462;10.846;2024-02-21T00:12:55;7.6;92.6
74484;SHT31;62942;52.462;10.846;2024-02-21T00:13:55;7.6;92.6
74484;SHT31;62942;52.462;10.846;2024-02-21T00:15:05;7.6;92.6
74484;SHT31;62942;52.462;10.846;2024-02-21T00:16:15;7.6;92.6
74484;SHT31;62942;52.462;10.846;2024-02-21T00:17:25;7.6;92.6
74484;SHT31;62942;52.462;10.846;2024-02-21T00:18:35;7.6;92.6
74484;SHT31;62942;52.462;10.846;2024-02-21T00:19:45;7.6;92.5
74484;SHT31;62942;52.462;10.846;2024-02-21T00:20:55;7.6;92.5
74484;SHT31;62942;52.462;10.846;2024-02-21T00:22:05;7.6;92.5
74484;SHT31;62942;52.462;10.846;2024-02-21T00:23:15;7.6;92.5
74484;SHT31;62942;52.462;10.846;2024-02-21T00:24:15;7.6;92.5
74484;SHT31;62942;52.462;10.846;2024-02-21T00:25:25;7.6;92.4
74484;SHT31;62942;52.462;10.846;2024-02-21T00:26:25;7.6;92.4
74484;SHT31;62942;52.462;10.846;2024-02-21T00:27:25;7.6;92.4
74484;SHT31;62942;52.462;10.846;2024-02-21T00:28:35;7.6;92.4
74484;SHT31;62942;52.462;10.846;2024-02-21T00:29:35;7.6;92.3
74484;SHT31;62942;52.462;10.846;2024-02-21T00:30:35;7.6;92.3
74484;SHT31;62942;52.462;10.846;2024-02-21T00:31:45;7.6;92.2
74484;SHT31;62942;52.462;10.846;2024-02-21T00:32:55;7.6;92.2
74484;SHT31;62942;52.462;10.846;2024-02-21T00:34:05;7.7;92.2
74484;SHT31;62942;52.462;10.846;2024-02-21T00:35:15;7.7;92.1
74484;SHT31;62942;52.462;10.846;2024-02-21T00:36:15;7.7;92
74484;SHT31;62942;52.462;10.846;2024-02-21T00:37:25;7.7;91.9
74484;SHT31;62942;52.462;10.846;2024-02-21T00:38:35;7.7;91.9
74484;SHT31;62942;52.462;10.846;2024-02-21T00:39:45;7.7;91.8
74484;SHT31;62942;52.462;10.846;2024-02-21T00:40:55;7.7;91.8
74484;SHT31;62942;52.462;10.846;2024-02-21T00:42:05;7.7;91.7
74484;SHT31;62942;52.462;10.846;2024-02-21T00:43:05;7.8;91.5
74484;SHT31;62942;52.462;10.846;2024-02-21T00:44:05;7.8;91.6
74484;SHT31;62942;52.462;10.846;2024-02-21T00:45:15;7.8;91.6
74484;SHT31;62942;52.462;10.846;2024-02-21T00:46:15;7.7;91.6
74484;SHT31;62942;52.462;10.846;2024-02-21T00:47:25;7.8;91.6
74484;SHT31;62942;52.462;10.846;2024-02-21T00:48:35;7.8;91.4
74484;SHT31;62942;52.462;10.846;2024-02-21T00:49:45;7.8;91.4
74484;SHT31;62942;52.462;10.846;2024-02-21T00:50:55;7.8;91.4
74484;SHT31;62942;52.462;10.846;2024-02-21T00:51:55;7.8;91.4
74484;SHT31;62942;52.462;10.846;2024-02-21T00:52:55;7.8;91.4
74484;SHT31;62942;52.462;10.846;2024-02-21T00:54:04;7.8;91.4
74484;SHT31;62942;52.462;10.846;2024-02-21T00:55:05;7.8;91.4
74484;SHT31;62942;52.462;10.846;2024-02-21T00:56:15;7.8;91.3
74484;SHT31;62942;52.462;10.846;2024-02-21T00:57:15;7.8;91.3
74484;SHT31;62942;52.462;10.846;2024-02-21T00:58:24;7.8;91.2
74484;SHT31;62942;52.462;10.846;2024-02-21T00:59:25;7.8;91.2
74484;SHT31;62942;52.462;10.846;2024-02-21T01:00:35;7.9;91.2
74484;SHT31;62942;52.462;10.846;2024-02-21T01:01:45;7.9;91.2
74484;SHT31;62942;52.462;10.846;2024-02-21T01:02:45;7.9;91.2
74484;SHT31;62942;52.462;10.846;2024-02-21T01:03:45;7.8;91.2
74484;SHT31;62942;52.462;10.846;2024-02-21T01:04:54;7.9;91.1
74484;SHT31;62942;52.462;10.846;2024-02-21T01:06:05;7.9;91.2
74484;SHT31;62942;52.462;10.846;2024-02-21T01:07:04;7.9;91.1
74484;SHT31;62942;52.462;10.846;2024-02-21T01:08:05;7.9;91.1
74484;SHT31;62942;52.462;10.846;2024-02-21T01:09:05;7.9;91
74484;SHT31;62942;52.462;10.846;2024-02-21T01:10:15;7.9;90.8
74484;SHT31;62942;52.462;10.846;2024-02-21T01:11:15;7.9;90.6
74484;SHT31;62942;52.462;10.846;2024-02-21T01:12:25;7.9;90.8
74484;SHT31;62942;52.462;10.846;2024-02-21T01:13:25;7.9;90.8
74484;SHT31;62942;52.462;10.846;2024-02-21T01:14:35;8;90.8
74484;SHT31;62942;52.462;10.846;2024-02-21T01:15:45;8;90.8
74484;SHT31;62942;52.462;10.846;2024-02-21T01:16:55;8;90.7
74484;SHT31;62942;52.462;10.846;2024-02-21T01:18:04;8;90.7
74484;SHT31;62942;52.462;10.846;2024-02-21T01:19:05;8;90.7
74484;SHT31;62942;52.462;10.846;2024-02-21T01:20:05;8;90.6
74484;SHT31;62942;52.462;10.846;2024-02-21T01:21:15;8;90.6
74484;SHT31;62942;52.462;10.846;2024-02-21T01:22:15;8;90.6
74484;SHT31;62942;52.462;10.846;2024-02-21T01:23:26;8;90.5
74484;SHT31;62942;52.462;10.846;2024-02-21T01:24:35;8;90.5
74484;SHT31;62942;52.462;10.846;2024-02-21T01:25:45;8;90.5
74484;SHT31;62942;52.462;10.846;2024-02-21T01:26:44;8;90.5
74484;SHT31;62942;52.462;10.846;2024-02-21T01:27:54;8;90.6
74484;SHT31;62942;52.462;10.846;2024-02-21T01:28:54;8;90.6
74484;SHT31;62942;52.462;10.846;2024-02-21T01:29:54;8;90.5
74484;SHT31;62942;52.462;10.846;2024-02-21T01:30:54;8;90.6
74484;SHT31;62942;52.462;10.846;2024-02-21T01:32:05;8;90.6
74484;SHT31;62942;52.462;10.846;2024-02-21T01:33:14;8;90.6
74484;SHT31;62942;52.462;10.846;2024-02-21T01:34:24;8;90.7
74484;SHT31;62942;52.462;10.846;2024-02-21T01:35:24;8;90.7
74484;SHT31;62942;52.462;10.846;2024-02-21T01:36:25;8;90.7
74484;SHT31;62942;52.462;10.846;2024-02-21T01:37:24;8;90.7
74484;SHT31;62942;52.462;10.846;2024-02-21T01:38:34;8;90.8
74484;SHT31;62942;52.462;10.846;2024-02-21T01:39:34;8;90.7
74484;SHT31;62942;52.462;10.846;2024-02-21T01:40:35;8;90.8
74484;SHT31;62942;52.462;10.846;2024-02-21T01:41:45;8;90.7
74484;SHT31;62942;52.462;10.846;2024-02-21T01:42:44;8;90.7
74484;SHT31;62942;52.462;10.846;2024-02-21T01:43:44;8.1;90.7
74484;SHT31;62942;52.462;10.846;2024-02-21T01:44:55;8;90.7
74484;SHT31;62942;52.462;10.846;2024-02-21T01:46:04;8.1;90.6
74484;SHT31;62942;52.462;10.846;2024-02-21T01:47:14;8.1;90.6
74484;SHT31;62942;52.462;10.846;2024-02-21T01:48:25;8.1;90.7
74484;SHT31;62942;52.462;10.846;2024-02-21T01:49:34;8.1;90.6
74484;SHT31;62942;52.462;10.846;2024-02-21T01:50:45;8.1;90.7
74484;SHT31;62942;52.462;10.846;2024-02-21T01:51:44;8.1;90.7
74484;SHT31;62942;52.462;10.846;2024-02-21T01:52:54;8.1;90.7
74484;SHT31;62942;52.462;10.846;2024-02-21T01:53:55;8.1;90.8
74484;SHT31;62942;52.462;10.846;2024-02-21T01:54:54;8.1;90.7
74484;SHT31;62942;52.462;10.846;2024-02-21T01:55:54;8.1;90.7
74484;SHT31;62942;52.462;10.846;2024-02-21T01:56:54;8.1;90.8
74484;SHT31;62942;52.462;10.846;2024-02-21T01:57:54;8.1;90.9
74484;SHT31;62942;52.462;10.846;2024-02-21T01:59:04;8.1;90.7
74484;SHT31;62942;52.462;10.846;2024-02-21T02:00:05;8.1;90.7
74484;SHT31;62942;52.462;10.846;2024-02-21T02:01:04;8.1;90.8
74484;SHT31;62942;52.462;10.846;2024-02-21T02:02:14;8.1;90.8
74484;SHT31;62942;52.462;10.846;2024-02-21T02:03:24;8.1;90.8
74484;SHT31;62942;52.462;10.846;2024-02-21T02:04:24;8.1;90.8
74484;SHT31;62942;52.462;10.846;2024-02-21T02:05:34;8.1;90.8
74484;SHT31;62942;52.462;10.846;2024-02-21T02:06:44;8.1;90.8
74484;SHT31;62942;52.462;10.846;2024-02-21T02:07:44;8.1;90.8
74484;SHT31;62942;52.462;10.846;2024-02-21T02:08:54;8.1;90.8
74484;SHT31;62942;52.462;10.846;2024-02-21T02:10:05;8.1;90.9
74484;SHT31;62942;52.462;10.846;2024-02-21T02:11:04;8.1;90.9
74484;SHT31;62942;52.462;10.846;2024-02-21T02:12:14;8.1;90.9
74484;SHT31;62942;52.462;10.846;2024-02-21T02:13:15;8.1;90.9
74484;SHT31;62942;52.462;10.846;2024-02-21T02:14:14;8.1;90.9
74484;SHT31;62942;52.462;10.846;2024-02-21T02:15:14;8.1;90.8
74484;SHT31;62942;52.462;10.846;2024-02-21T02:16:24;8.1;90.8
74484;SHT31;62942;52.462;10.846;2024-02-21T02:17:34;8.1;90.8
74484;SHT31;62942;52.462;10.846;2024-02-21T02:18:44;8.1;90.8
74484;SHT31;62942;52.462;10.846;2024-02-21T02:19:54;8.1;90.8
74484;SHT31;62942;52.462;10.846;2024-02-21T02:21:04;8.1;90.7
74484;SHT31;62942;52.462;10.846;2024-02-21T02:22:10;8.1;90.7
74484;SHT31;62942;52.462;10.846;2024-02-21T02:23:18;8.2;90.7
74484;SHT31;62942;52.462;10.846;2024-02-21T02:24:14;8.2;90.7
74484;SHT31;62942;52.462;10.846;2024-02-21T02:25:14;8.1;90.7
74484;SHT31;62942;52.462;10.846;2024-02-21T02:26:24;8.1;90.7
74484;SHT31;62942;52.462;10.846;2024-02-21T02:27:40;8.2;90.7
74484;SHT31;62942;52.462;10.846;2024-02-21T02:28:44;8.1;90.7
74484;SHT31;62942;52.462;10.846;2024-02-21T02:29:44;8.2;90.6
74484;SHT31;62942;52.462;10.846;2024-02-21T02:30:45;8.2;90.6
74484;SHT31;62942;52.462;10.846;2024-02-21T02:31:54;8.1;90.6
74484;SHT31;62942;52.462;10.846;2024-02-21T02:33:05;8.1;90.7
74484;SHT31;62942;52.462;10.846;2024-02-21T02:34:04;8.1;90.6
74484;SHT31;62942;52.462;10.846;2024-02-21T02:35:14;8.2;90.6
74484;SHT31;62942;52.462;10.846;2024-02-21T02:36:14;8.1;90.6
74484;SHT31;62942;52.462;10.846;2024-02-21T02:37:24;8.2;90.6
74484;SHT31;62942;52.462;10.846;2024-02-21T02:38:34;8.1;90.6
74484;SHT31;62942;52.462;10.846;2024-02-21T02:39:34;8.2;90.6
74484;SHT31;62942;52.462;10.846;2024-02-21T02:40:35;8.2;90.5
74484;SHT31;62942;52.462;10.846;2024-02-21T02:41:35;8.2;90.5
74484;SHT31;62942;52.462;10.846;2024-02-21T02:42:44;8.2;90.3
74484;SHT31;62942;52.462;10.846;2024-02-21T02:43:44;8.2;90.3
74484;SHT31;62942;52.462;10.846;2024-02-21T02:44:54;8.2;90.1
74484;SHT31;62942;52.462;10.846;2024-02-21T02:46:04;8.2;90.1
74484;SHT31;62942;52.462;10.846;2024-02-21T02:47:04;8.2;90.1
74484;SHT31;62942;52.462;10.846;2024-02-21T02:48:14;8.2;90.1
74484;SHT31;62942;52.462;10.846;2024-02-21T02:49:14;8.2;90.1
74484;SHT31;62942;52.462;10.846;2024-02-21T02:50:25;8.2;89.9
74484;SHT31;62942;52.462;10.846;2024-02-21T02:51:24;8.2;89.9
74484;SHT31;62942;52.462;10.846;2024-02-21T02:52:24;8.2;89.9
74484;SHT31;62942;52.462;10.846;2024-02-21T02:53:34;8.2;89.9
74484;SHT31;62942;52.462;10.846;2024-02-21T02:54:44;8.3;89.8
74484;SHT31;62942;52.462;10.846;2024-02-21T02:55:54;8.3;89.6
74484;SHT31;62942;52.462;10.846;2024-02-21T02:56:54;8.3;89.7
74484;SHT31;62942;52.462;10.846;2024-02-21T02:57:54;8.3;89.6
74484;SHT31;62942;52.462;10.846;2024-02-21T02:59:04;8.3;89.4
74484;SHT31;62942;52.462;10.846;2024-02-21T03:00:15;8.3;89.3
74484;SHT31;62942;52.462;10.846;2024-02-21T03:01:24;8.3;89.4
74484;SHT31;62942;52.462;10.846;2024-02-21T03:02:24;8.3;89.1
74484;SHT31;62942;52.462;10.846;2024-02-21T03:03:34;8.3;89.3
74484;SHT31;62942;52.462;10.846;2024-02-21T03:04:45;8.3;89.2
74484;SHT31;62942;52.462;10.846;2024-02-21T03:05:54;8.3;89.1
74484;SHT31;62942;52.462;10.846;2024-02-21T03:06:54;8.3;89
74484;SHT31;62942;52.462;10.846;2024-02-21T03:08:04;8.3;89
74484;SHT31;62942;52.462;10.846;2024-02-21T03:09:04;8.3;89
74484;SHT31;62942;52.462;10.846;2024-02-21T03:10:14;8.3;89.1
74484;SHT31;62942;52.462;10.846;2024-02-21T03:11:15;8.3;89
74484;SHT31;62942;52.462;10.846;2024-02-21T03:12:16;8.3;89
74484;SHT31;62942;52.462;10.846;2024-02-21T03:13:24;8.3;89
74484;SHT31;62942;52.462;10.846;2024-02-21T03:14:34;8.4;88.9
74484;SHT31;62942;52.462;10.846;2024-02-21T03:15:44;8.3;88.9
74484;SHT31;62942;52.462;10.846;2024-02-21T03:16:44;8.3;88.8
74484;SHT31;62942;52.462;10.846;2024-02-21T03:17:44;8.4;88.8
74484;SHT31;62942;52.462;10.846;2024-02-21T03:18:54;8.4;88.7
74484;SHT31;62942;52.462;10.846;2024-02-21T03:20:05;8.4;88.7
74484;SHT31;62942;52.462;10.846;2024-02-21T03:21:14;8.4;88.5
74484;SHT31;62942;52.462;10.846;2024-02-21T03:22:14;8.4;88.6
74484;SHT31;62942;52.462;10.846;2024-02-21T03:23:24;8.4;88.6
74484;SHT31;62942;52.462;10.846;2024-02-21T03:24:34;8.4;88.5
74484;SHT31;62942;52.462;10.846;2024-02-21T03:25:44;8.4;88.5
74484;SHT31;62942;52.462;10.846;2024-02-21T03:26:46;8.4;88.5
74484;SHT31;62942;52.462;10.846;2024-02-21T03:27:54;8.4;88.6
74484;SHT31;62942;52.462;10.846;2024-02-21T03:29:04;8.4;88.3
74484;SHT31;62942;52.462;10.846;2024-02-21T03:30:14;8.4;88.3
74484;SHT31;62942;52.462;10.846;2024-02-21T03:31:24;8.4;88.2
74484;SHT31;62942;52.462;10.846;2024-02-21T03:32:24;8.4;88.3
74484;SHT31;62942;52.462;10.846;2024-02-21T03:33:34;8.4;88.1
74484;SHT31;62942;52.462;10.846;2024-02-21T03:34:34;8.4;88.1
74484;SHT31;62942;52.462;10.846;2024-02-21T03:35:34;8.4;88.2
74484;SHT31;62942;52.462;10.846;2024-02-21T03:36:44;8.4;88.3
74484;SHT31;62942;52.462;10.846;2024-02-21T03:37:44;8.4;88.3
74484;SHT31;62942;52.462;10.846;2024-02-21T03:38:54;8.4;88.2
74484;SHT31;62942;52.462;10.846;2024-02-21T03:39:54;8.4;88.2
74484;SHT31;62942;52.462;10.846;2024-02-21T03:40:54;8.4;88.1
74484;SHT31;62942;52.462;10.846;2024-02-21T03:42:05;8.4;88.1
74484;SHT31;62942;52.462;10.846;2024-02-21T03:43:14;8.4;88
74484;SHT31;62942;52.462;10.846;2024-02-21T03:44:24;8.4;87.9
74484;SHT31;62942;52.462;10.846;2024-02-21T03:45:34;8.4;87.8
74484;SHT31;62942;52.462;10.846;2024-02-21T03:46:34;8.4;87.8
74484;SHT31;62942;52.462;10.846;2024-02-21T03:47:34;8.4;87.8
74484;SHT31;62942;52.462;10.846;2024-02-21T03:48:44;8.4;87.8
74484;SHT31;62942;52.462;10.846;2024-02-21T03:49:44;8.4;87.8
74484;SHT31;62942;52.462;10.846;2024-02-21T03:50:44;8.5;87.5
74484;SHT31;62942;52.462;10.846;2024-02-21T03:51:54;8.4;87.6
74484;SHT31;62942;52.462;10.846;2024-02-21T03:53:04;8.4;87.5
74484;SHT31;62942;52.462;10.846;2024-02-21T03:54:14;8.4;87.6
74484;SHT31;62942;52.462;10.846;2024-02-21T03:55:24;8.4;87.6
74484;SHT31;62942;52.462;10.846;2024-02-21T03:56:37;8.5;87.6
74484;SHT31;62942;52.462;10.846;2024-02-21T03:57:34;8.4;87.5
74484;SHT31;62942;52.462;10.846;2024-02-21T03:58:34;8.4;87.5
74484;SHT31;62942;52.462;10.846;2024-02-21T03:59:44;8.4;87.6
74484;SHT31;62942;52.462;10.846;2024-02-21T04:00:44;8.5;87.6
74484;SHT31;62942;52.462;10.846;2024-02-21T04:01:54;8.5;87.6
74484;SHT31;62942;52.462;10.846;2024-02-21T04:02:54;8.5;87.7
74484;SHT31;62942;52.462;10.846;2024-02-21T04:04:04;8.5;87.5
74484;SHT31;62942;52.462;10.846;2024-02-21T04:05:04;8.5;87.4
74484;SHT31;62942;52.462;10.846;2024-02-21T04:06:04;8.5;87.1
74484;SHT31;62942;52.462;10.846;2024-02-21T04:07:14;8.5;87.2
74484;SHT31;62942;52.462;10.846;2024-02-21T04:08:24;8.5;87.2
74484;SHT31;62942;52.462;10.846;2024-02-21T04:09:34;8.5;87.2
74484;SHT31;62942;52.462;10.846;2024-02-21T04:10:44;8.5;87
74484;SHT31;62942;52.462;10.846;2024-02-21T04:11:44;8.5;86.9
74484;SHT31;62942;52.462;10.846;2024-02-21T04:12:44;8.5;87
74484;SHT31;62942;52.462;10.846;2024-02-21T04:13:54;8.5;86.9
74484;SHT31;62942;52.462;10.846;2024-02-21T04:14:54;8.5;86.9
74484;SHT31;62942;52.462;10.846;2024-02-21T04:16:04;8.5;86.8
74484;SHT31;62942;52.462;10.846;2024-02-21T04:17:14;8.5;86.8
74484;SHT31;62942;52.462;10.846;2024-02-21T04:18:24;8.6;86.8
74484;SHT31;62942;52.462;10.846;2024-02-21T04:19:24;8.5;86.9
74484;SHT31;62942;52.462;10.846;2024-02-21T04:20:34;8.6;86.6
74484;SHT31;62942;52.462;10.846;2024-02-21T04:21:44;8.5;86.6
74484;SHT31;62942;52.462;10.846;2024-02-21T04:22:54;8.5;86.7
74484;SHT31;62942;52.462;10.846;2024-02-21T04:23:54;8.5;86.6
74484;SHT31;62942;52.462;10.846;2024-02-21T04:24:54;8.6;86.7
74484;SHT31;62942;52.462;10.846;2024-02-21T04:26:04;8.5;86.6
74484;SHT31;62942;52.462;10.846;2024-02-21T04:27:04;8.6;86.5
74484;SHT31;62942;52.462;10.846;2024-02-21T04:28:14;8.6;86.6
74484;SHT31;62942;52.462;10.846;2024-02-21T04:29:24;8.6;86.5
74484;SHT31;62942;52.462;10.846;2024-02-21T04:30:24;8.6;86.5
74484;SHT31;62942;52.462;10.846;2024-02-21T04:31:24;8.5;86.4
74484;SHT31;62942;52.462;10.846;2024-02-21T04:32:34;8.6;86.6
74484;SHT31;62942;52.462;10.846;2024-02-21T04:33:44;8.6;86.5
74484;SHT31;62942;52.462;10.846;2024-02-21T04:34:44;8.6;86.5
74484;SHT31;62942;52.462;10.846;2024-02-21T04:35:44;8.6;86.4
74484;SHT31;62942;52.462;10.846;2024-02-21T04:36:54;8.5;86.5
74484;SHT31;62942;52.462;10.846;2024-02-21T04:37:54;8.6;86.5
74484;SHT31;62942;52.462;10.846;2024-02-21T04:38:54;8.6;86.5
74484;SHT31;62942;52.462;10.846;2024-02-21T04:39:54;8.5;86.5
74484;SHT31;62942;52.462;10.846;2024-02-21T04:41:04;8.5;86.4
74484;SHT31;62942;52.462;10.846;2024-02-21T04:42:04;8.5;86.4
74484;SHT31;62942;52.462;10.846;2024-02-21T04:43:14;8.6;86.3
74484;SHT31;62942;52.462;10.846;2024-02-21T04:44:14;8.5;86.2
74484;SHT31;62942;52.462;10.846;2024-02-21T04:45:24;8.6;86.2
74484;SHT31;62942;52.462;10.846;2024-02-21T04:46:24;8.6;86.3
74484;SHT31;62942;52.462;10.846;2024-02-21T04:47:24;8.6;86.2
74484;SHT31;62942;52.462;10.846;2024-02-21T04:48:34;8.6;86.2
74484;SHT31;62942;52.462;10.846;2024-02-21T04:49:34;8.6;85.8
74484;SHT31;62942;52.462;10.846;2024-02-21T04:50:44;8.6;85.9
74484;SHT31;62942;52.462;10.846;2024-02-21T04:51:45;8.6;85.8
74484;SHT31;62942;52.462;10.846;2024-02-21T04:52:44;8.6;85.9
74484;SHT31;62942;52.462;10.846;2024-02-21T04:53:54;8.6;85.7
74484;SHT31;62942;52.462;10.846;2024-02-21T04:54:54;8.6;85.7
74484;SHT31;62942;52.462;10.846;2024-02-21T04:56:04;8.6;85.8
74484;SHT31;62942;52.462;10.846;2024-02-21T04:57:14;8.6;85.8
74484;SHT31;62942;52.462;10.846;2024-02-21T04:58:14;8.6;85.7
74484;SHT31;62942;52.462;10.846;2024-02-21T04:59:24;8.6;85.8
74484;SHT31;62942;52.462;10.846;2024-02-21T05:00:24;8.6;85.6
74484;SHT31;62942;52.462;10.846;2024-02-21T05:01:24;8.6;85.6
74484;SHT31;62942;52.462;10.846;2024-02-21T05:02:34;8.6;85.6
74484;SHT31;62942;52.462;10.846;2024-02-21T05:03:34;8.6;85.7
74484;SHT31;62942;52.462;10.846;2024-02-21T05:04:44;8.6;85.6
74484;SHT31;62942;52.462;10.846;2024-02-21T05:05:54;8.6;85.5
74484;SHT31;62942;52.462;10.846;2024-02-21T05:06:54;8.6;85.6
74484;SHT31;62942;52.462;10.846;2024-02-21T05:08:04;8.6;85.6
74484;SHT31;62942;52.462;10.846;2024-02-21T05:09:04;8.6;85.4
74484;SHT31;62942;52.462;10.846;2024-02-21T05:10:14;8.6;85.5
74484;SHT31;62942;52.462;10.846;2024-02-21T05:11:14;8.6;85.5
74484;SHT31;62942;52.462;10.846;2024-02-21T05:12:14;8.6;85.5
74484;SHT31;62942;52.462;10.846;2024-02-21T05:13:26;8.6;85.4
74484;SHT31;62942;52.462;10.846;2024-02-21T05:14:34;8.6;85.5
74484;SHT31;62942;52.462;10.846;2024-02-21T05:15:34;8.6;85.4
74484;SHT31;62942;52.462;10.846;2024-02-21T05:16:44;8.6;85.5
74484;SHT31;62942;52.462;10.846;2024-02-21T05:17:54;8.6;85.3
74484;SHT31;62942;52.462;10.846;2024-02-21T05:18:54;8.6;85.4
74484;SHT31;62942;52.462;10.846;2024-02-21T05:19:54;8.6;85.5
74484;SHT31;62942;52.462;10.846;2024-02-21T05:21:04;8.6;85.4
74484;SHT31;62942;52.462;10.846;2024-02-21T05:22:04;8.6;85.5
74484;SHT31;62942;52.462;10.846;2024-02-21T05:23:04;8.6;85.4
74484;SHT31;62942;52.462;10.846;2024-02-21T05:24:04;8.6;85.5
74484;SHT31;62942;52.462;10.846;2024-02-21T05:25:14;8.6;85.5
74484;SHT31;62942;52.462;10.846;2024-02-21T05:26:25;8.6;85.5
74484;SHT31;62942;52.462;10.846;2024-02-21T05:27:24;8.6;85.5
74484;SHT31;62942;52.462;10.846;2024-02-21T05:28:34;8.6;85.6
74484;SHT31;62942;52.462;10.846;2024-02-21T05:29:34;8.6;85.7
74484;SHT31;62942;52.462;10.846;2024-02-21T05:30:44;8.6;85.7
74484;SHT31;62942;52.462;10.846;2024-02-21T05:31:55;8.6;85.5
74484;SHT31;62942;52.462;10.846;2024-02-21T05:33:04;8.6;85.5
74484;SHT31;62942;52.462;10.846;2024-02-21T05:34:14;8.6;85.4
74484;SHT31;62942;52.462;10.846;2024-02-21T05:35:14;8.6;85.3
74484;SHT31;62942;52.462;10.846;2024-02-21T05:36:14;8.6;85.4
74484;SHT31;62942;52.462;10.846;2024-02-21T05:37:14;8.6;85.3
74484;SHT31;62942;52.462;10.846;2024-02-21T05:38:24;8.7;85.2
74484;SHT31;62942;52.462;10.846;2024-02-21T05:39:24;8.6;85.1
74484;SHT31;62942;52.462;10.846;2024-02-21T05:40:34;8.7;85.2
74484;SHT31;62942;52.462;10.846;2024-02-21T05:41:34;8.7;85.1
74484;SHT31;62942;52.462;10.846;2024-02-21T05:42:44;8.7;85.1
74484;SHT31;62942;52.462;10.846;2024-02-21T05:43:44;8.7;85.1
74484;SHT31;62942;52.462;10.846;2024-02-21T05:44:54;8.7;85.1
74484;SHT31;62942;52.462;10.846;2024-02-21T05:45:54;8.7;85.1
74484;SHT31;62942;52.462;10.846;2024-02-21T05:47:04;8.7;85
74484;SHT31;62942;52.462;10.846;2024-02-21T05:48:04;8.7;85
74484;SHT31;62942;52.462;10.846;2024-02-21T05:49:04;8.7;84.9
74484;SHT31;62942;52.462;10.846;2024-02-21T05:50:04;8.7;84.9
74484;SHT31;62942;52.462;10.846;2024-02-21T05:51:14;8.7;85
74484;SHT31;62942;52.462;10.846;2024-02-21T05:52:14;8.7;84.9
74484;SHT31;62942;52.462;10.846;2024-02-21T05:53:24;8.7;84.9
74484;SHT31;62942;52.462;10.846;2024-02-21T05:54:24;8.7;84.8
74484;SHT31;62942;52.462;10.846;2024-02-21T05:55:34;8.7;84.8
74484;SHT31;62942;52.462;10.846;2024-02-21T05:56:34;8.7;84.7
74484;SHT31;62942;52.462;10.846;2024-02-21T05:57:44;8.7;84.8
74484;SHT31;62942;52.462;10.846;2024-02-21T05:58:44;8.7;84.8
74484;SHT31;62942;52.462;10.846;2024-02-21T05:59:54;8.7;84.7
74484;SHT31;62942;52.462;10.846;2024-02-21T06:00:54;8.7;84.8
74484;SHT31;62942;52.462;10.846;2024-02-21T06:02:04;8.8;84.8
74484;SHT31;62942;52.462;10.846;2024-02-21T06:03:14;8.8;84.8
74484;SHT31;62942;52.462;10.846;2024-02-21T06:04:24;8.8;84.8
74484;SHT31;62942;52.462;10.846;2024-02-21T06:05:36;8.7;84.7
74484;SHT31;62942;52.462;10.846;2024-02-21T06:06:34;8.8;84.8
74484;SHT31;62942;52.462;10.846;2024-02-21T06:07:44;8.8;84.8
74484;SHT31;62942;52.462;10.846;2024-02-21T06:08:44;8.8;84.8
74484;SHT31;62942;52.462;10.846;2024-02-21T06:09:44;8.8;84.8
74484;SHT31;62942;52.462;10.846;2024-02-21T06:10:54;8.8;84.8
74484;SHT31;62942;52.462;10.846;2024-02-21T06:11:54;8.7;84.8
74484;SHT31;62942;52.462;10.846;2024-02-21T06:13:04;8.7;84.9
74484;SHT31;62942;52.462;10.846;2024-02-21T06:14:04;8.7;84.9
74484;SHT31;62942;52.462;10.846;2024-02-21T06:15:14;8.8;84.8
74484;SHT31;62942;52.462;10.846;2024-02-21T06:16:24;8.8;84.9
74484;SHT31;62942;52.462;10.846;2024-02-21T06:17:34;8.8;85
74484;SHT31;62942;52.462;10.846;2024-02-21T06:18:44;8.8;85.1
74484;SHT31;62942;52.462;10.846;2024-02-21T06:19:54;8.8;85.2
74484;SHT31;62942;52.462;10.846;2024-02-21T06:21:04;8.7;85.3
74484;SHT31;62942;52.462;10.846;2024-02-21T06:22:14;8.7;85.4
74484;SHT31;62942;52.462;10.846;2024-02-21T06:23:15;8.7;85.4
74484;SHT31;62942;52.462;10.846;2024-02-21T06:24:24;8.7;85.5
74484;SHT31;62942;52.462;10.846;2024-02-21T06:25:34;8.7;85.7
74484;SHT31;62942;52.462;10.846;2024-02-21T06:26:34;8.7;85.6
74484;SHT31;62942;52.462;10.846;2024-02-21T06:27:44;8.7;85.6
74484;SHT31;62942;52.462;10.846;2024-02-21T06:28:44;8.7;85.6
74484;SHT31;62942;52.462;10.846;2024-02-21T06:29:54;8.7;85.8
74484;SHT31;62942;52.462;10.846;2024-02-21T06:30:54;8.7;85.8
74484;SHT31;62942;52.462;10.846;2024-02-21T06:32:04;8.7;85.7
74484;SHT31;62942;52.462;10.846;2024-02-21T06:33:14;8.7;85.7
74484;SHT31;62942;52.462;10.846;2024-02-21T06:34:24;8.7;85.6
74484;SHT31;62942;52.462;10.846;2024-02-21T06:35:24;8.7;85.7
74484;SHT31;62942;52.462;10.846;2024-02-21T06:36:24;8.7;85.7
74484;SHT31;62942;52.462;10.846;2024-02-21T06:37:34;8.7;85.6
74484;SHT31;62942;52.462;10.846;2024-02-21T06:38:44;8.7;85.6
74484;SHT31;62942;52.462;10.846;2024-02-21T06:39:54;8.7;85.6
74484;SHT31;62942;52.462;10.846;2024-02-21T06:40:54;8.7;85.6
74484;SHT31;62942;52.462;10.846;2024-02-21T06:42:04;8.7;85.6
74484;SHT31;62942;52.462;10.846;2024-02-21T06:43:04;8.7;85.7
74484;SHT31;62942;52.462;10.846;2024-02-21T06:44:14;8.7;85.5
74484;SHT31;62942;52.462;10.846;2024-02-21T06:45:14;8.7;85.5
74484;SHT31;62942;52.462;10.846;2024-02-21T06:46:24;8.7;85.3
74484;SHT31;62942;52.462;10.846;2024-02-21T06:47:24;8.7;85.2
74484;SHT31;62942;52.462;10.846;2024-02-21T06:48:24;8.8;85.3
74484;SHT31;62942;52.462;10.846;2024-02-21T06:49:24;8.8;85.1
74484;SHT31;62942;52.462;10.846;2024-02-21T06:50:34;8.8;85.1
74484;SHT31;62942;52.462;10.846;2024-02-21T06:51:44;8.8;85.2
74484;SHT31;62942;52.462;10.846;2024-02-21T06:52:44;8.8;85.2
74484;SHT31;62942;52.462;10.846;2024-02-21T06:53:44;8.8;85.2
74484;SHT31;62942;52.462;10.846;2024-02-21T06:54:44;8.8;85.2
74484;SHT31;62942;52.462;10.846;2024-02-21T06:55:44;8.8;85.2
74484;SHT31;62942;52.462;10.846;2024-02-21T06:56:44;8.8;85.2
74484;SHT31;62942;52.462;10.846;2024-02-21T06:57:54;8.8;85.2
74484;SHT31;62942;52.462;10.846;2024-02-21T06:59:04;8.8;85.2
74484;SHT31;62942;52.462;10.846;2024-02-21T07:00:04;8.8;85.3
74484;SHT31;62942;52.462;10.846;2024-02-21T07:01:04;8.8;85.1
74484;SHT31;62942;52.462;10.846;2024-02-21T07:02:14;8.8;85.2
74484;SHT31;62942;52.462;10.846;2024-02-21T07:03:14;8.8;85.2
74484;SHT31;62942;52.462;10.846;2024-02-21T07:04:24;8.8;85.3
74484;SHT31;62942;52.462;10.846;2024-02-21T07:05:34;8.8;85.4
74484;SHT31;62942;52.462;10.846;2024-02-21T07:06:34;8.8;85.4
74484;SHT31;62942;52.462;10.846;2024-02-21T07:07:44;8.8;85.5
74484;SHT31;62942;52.462;10.846;2024-02-21T07:08:44;8.8;85.5